Time;durP1;ratioP1;P1;durP2;ratioP2;P2;SDS_P1;SDS_P2;PMS_P1;PMS_P2;Temp;Humidity;BMP_temperature;BMP_pressure;BME280_temperature;BME280_humidity;BME280_pressure;Samples;Min_cycle;Max_cycle;Signal;HPM_P1;HPM_P2
2022/09/17 00:02:24;;;;;;;0.50;0.50;;;21.70;99.90;;;;;;6154228;23;20008;-84
2022/09/17 00:04:50;;;;;;;1.02;0.65;;;21.60;99.90;;;;;;6152791;23;20064;-83
2022/09/17 00:07:16;;;;;;;1.85;0.60;;;21.40;99.90;;;;;;6154517;23;20068;-83
2022/09/17 00:09:43;;;;;;;0.63;0.50;;;21.40;99.90;;;;;;6154252;23;20001;-83
2022/09/17 00:12:09;;;;;;;0.40;0.40;;;21.40;99.90;;;;;;6154245;23;19997;-83
2022/09/17 00:14:35;;;;;;;0.30;0.30;;;21.30;99.90;;;;;;6154394;23;20005;-83
2022/09/17 00:17:00;;;;;;;0.40;0.40;;;21.30;99.90;;;;;;6154355;23;20452;-83
2022/09/17 00:19:26;;;;;;;0.20;0.20;;;21.30;99.90;;;;;;6152504;23;20010;-83
2022/09/17 00:21:52;;;;;;;0.30;0.30;;;21.30;99.90;;;;;;6152817;23;20005;-83
2022/09/17 00:24:19;;;;;;;0.38;0.30;;;21.40;99.90;;;;;;6154087;23;20105;-83
2022/09/17 00:26:46;;;;;;;1.05;0.30;;;21.30;99.90;;;;;;6154130;23;20061;-83
2022/09/17 00:29:12;;;;;;;0.30;0.30;;;21.30;99.90;;;;;;6152734;23;20005;-83
2022/09/17 00:31:38;;;;;;;0.28;0.28;;;21.30;99.90;;;;;;6154062;23;20052;-84
2022/09/17 00:34:05;;;;;;;1.17;0.40;;;21.30;99.90;;;;;;6152306;23;20009;-83
2022/09/17 00:36:37;;;;;;;0.35;0.32;;;21.30;99.90;;;;;;6152495;23;20025;-83
2022/09/17 00:39:04;;;;;;;1.52;0.30;;;21.30;99.90;;;;;;6152500;23;20059;-83
2022/09/17 00:41:32;;;;;;;0.77;0.30;;;21.30;99.90;;;;;;6152749;23;20315;-83
2022/09/17 00:44:00;;;;;;;0.40;0.40;;;21.30;99.90;;;;;;6177223;23;20060;-85
2022/09/17 00:46:37;;;;;;;0.25;0.25;;;21.20;99.90;;;;;;6152461;23;20005;-84
2022/09/17 00:49:16;;;;;;;0.30;0.30;;;21.10;99.90;;;;;;6152667;23;20021;-84
2022/09/17 00:52:06;;;;;;;0.30;0.30;;;21.00;99.90;;;;;;6152429;23;20002;-84
2022/09/17 00:54:34;;;;;;;1.08;0.30;;;21.00;99.90;;;;;;6153353;23;20009;-83
2022/09/17 00:57:01;;;;;;;0.30;0.30;;;21.00;99.90;;;;;;6152235;23;20352;-84
2022/09/17 00:59:27;;;;;;;0.30;0.30;;;21.10;99.90;;;;;;6152402;23;20013;-83
2022/09/17 01:01:53;;;;;;;0.28;0.28;;;21.10;99.90;;;;;;6152993;23;20058;-83
2022/09/17 01:04:22;;;;;;;0.20;0.20;;;21.10;99.90;;;;;;6153855;23;20442;-84
2022/09/17 01:06:56;;;;;;;0.10;0.10;;;21.00;99.90;;;;;;6153748;23;20005;-83
2022/09/17 01:09:57;;;;;;;0.70;0.32;;;20.90;99.90;;;;;;6153922;23;20081;-84
2022/09/17 01:12:38;;;;;;;0.20;0.20;;;20.80;99.90;;;;;;6152104;23;20060;-83
2022/09/17 01:15:13;;;;;;;1.35;0.30;;;20.70;99.90;;;;;;6154025;23;20002;-84
2022/09/17 01:17:46;;;;;;;0.10;0.10;;;20.80;99.90;;;;;;6153989;23;19997;-84
2022/09/17 01:20:37;;;;;;;0.20;0.20;;;20.60;99.90;;;;;;6154083;23;19997;-83
2022/09/17 01:23:39;;;;;;;0.20;0.20;;;20.60;99.90;;;;;;6153686;23;20060;-83
2022/09/17 01:26:24;;;;;;;0.80;0.30;;;20.50;99.90;;;;;;6153939;23;20001;-84
2022/09/17 01:28:58;;;;;;;0.22;0.22;;;20.60;99.90;;;;;;6177227;23;20016;-84
2022/09/17 01:31:35;;;;;;;1.02;0.10;;;20.50;99.90;;;;;;6153660;23;20012;-83
2022/09/17 01:34:10;;;;;;;0.30;0.28;;;20.50;99.90;;;;;;6151953;23;20020;-82
2022/09/17 01:37:03;;;;;;;0.10;0.10;;;20.40;99.90;;;;;;6153685;23;19997;-84
2022/09/17 01:39:41;;;;;;;0.10;0.10;;;20.40;99.90;;;;;;6153865;23;20002;-83
2022/09/17 01:42:34;;;;;;;0.10;0.10;;;20.50;99.90;;;;;;6153943;23;20037;-83
2022/09/17 01:45:26;;;;;;;0.10;0.10;;;20.40;99.90;;;;;;6153790;23;20025;-84
2022/09/17 01:47:54;;;;;;;0.10;0.10;;;20.40;99.90;;;;;;6152072;23;20002;-84
2022/09/17 01:50:28;;;;;;;0.82;0.22;;;20.50;99.90;;;;;;6153857;23;19998;-82
2022/09/17 01:52:55;;;;;;;2.10;0.30;;;20.50;99.90;;;;;;6153623;23;20001;-82
2022/09/17 01:55:26;;;;;;;0.20;0.13;;;20.50;99.90;;;;;;6155427;23;20017;-82
2022/09/17 01:58:08;;;;;;;1.55;0.10;;;20.50;99.90;;;;;;6155208;23;20012;-82
2022/09/17 02:00:36;;;;;;;0.10;0.10;;;20.50;99.90;;;;;;6156728;23;20002;-82
2022/09/17 02:03:11;;;;;;;0.63;0.35;;;20.50;99.90;;;;;;6154704;23;20013;-82
2022/09/17 02:05:57;;;;;;;0.20;0.10;;;20.50;99.90;;;;;;6156698;23;20005;-82
2022/09/17 02:08:26;;;;;;;0.25;0.20;;;20.40;99.90;;;;;;6154937;23;20012;-82
2022/09/17 02:11:02;;;;;;;0.20;0.20;;;20.50;99.90;;;;;;6156711;23;20001;-83
2022/09/17 02:13:43;;;;;;;0.20;0.20;;;20.40;99.90;;;;;;6154689;23;20010;-82
2022/09/17 02:16:18;;;;;;;0.10;0.10;;;20.50;99.90;;;;;;6155100;23;20002;-83
2022/09/17 02:18:43;;;;;;;0.20;0.20;;;20.50;99.90;;;;;;6156625;23;20025;-83
2022/09/17 02:21:19;;;;;;;0.20;0.20;;;20.50;99.90;;;;;;6155889;23;20004;-82
2022/09/17 02:23:56;;;;;;;0.10;0.10;;;20.50;99.90;;;;;;6154994;23;20311;-83
2022/09/17 02:26:25;;;;;;;0.10;0.10;;;20.50;99.90;;;;;;6154863;23;20009;-82
2022/09/17 02:28:55;;;;;;;0.10;0.10;;;20.50;99.90;;;;;;6154762;23;20013;-83
2022/09/17 02:31:21;;;;;;;0.20;0.20;;;20.50;99.90;;;;;;6156612;23;20005;-82
2022/09/17 02:33:55;;;;;;;0.10;0.10;;;20.40;99.90;;;;;;6179211;23;20056;-82
2022/09/17 02:36:20;;;;;;;0.60;0.20;;;20.40;99.90;;;;;;6156376;23;20001;-83
2022/09/17 02:38:46;;;;;;;0.20;0.20;;;20.40;99.90;;;;;;6156762;23;19998;-84
2022/09/17 02:41:28;;;;;;;0.20;0.20;;;20.30;99.90;;;;;;6156459;23;20341;-83
2022/09/17 02:44:32;;;;;;;0.20;0.20;;;20.30;99.90;;;;;;6155013;23;20538;-83
2022/09/17 02:47:10;;;;;;;0.20;0.20;;;20.40;99.90;;;;;;6154997;23;20091;-82
2022/09/17 02:49:58;;;;;;;0.60;0.30;;;20.30;99.90;;;;;;6154857;23;20009;-83
2022/09/17 02:52:55;;;;;;;0.20;0.20;;;20.30;99.90;;;;;;6153258;23;20422;-83
2022/09/17 02:55:37;;;;;;;0.20;0.20;;;20.30;99.90;;;;;;6177308;23;20026;-83
2022/09/17 02:58:02;;;;;;;0.57;0.30;;;20.20;99.90;;;;;;6155412;23;20002;-83
2022/09/17 03:00:29;;;;;;;0.20;0.20;;;20.30;99.90;;;;;;6155204;23;20229;-82
2022/09/17 03:03:14;;;;;;;0.10;0.10;;;20.30;99.90;;;;;;6154795;23;20006;-82
2022/09/17 03:05:43;;;;;;;0.20;0.20;;;20.30;99.90;;;;;;6141911;23;20220;-83
2022/09/17 03:08:13;;;;;;;0.10;0.10;;;20.30;99.90;;;;;;6152971;23;20001;-83
2022/09/17 03:10:40;;;;;;;0.20;0.20;;;20.40;99.90;;;;;;6151150;23;20097;-82
2022/09/17 03:13:06;;;;;;;0.10;0.10;;;20.50;99.90;;;;;;6152734;23;20005;-82
2022/09/17 03:15:31;;;;;;;0.28;0.22;;;20.40;99.90;;;;;;6152659;23;20047;-82
2022/09/17 03:17:57;;;;;;;1.10;0.63;;;20.40;99.90;;;;;;6151589;23;20048;-81
2022/09/17 03:20:23;;;;;;;0.35;0.35;;;20.40;99.90;;;;;;6153932;23;20005;-82
2022/09/17 03:22:50;;;;;;;1.55;0.30;;;20.40;99.90;;;;;;6178188;23;20016;-81
2022/09/17 03:25:16;;;;;;;1.20;0.30;;;20.30;99.90;;;;;;6153442;23;20012;-81
2022/09/17 03:27:41;;;;;;;1.00;0.38;;;20.10;99.90;;;;;;6154856;23;20010;-80
2022/09/17 03:30:07;;;;;;;0.40;0.30;;;20.10;99.90;;;;;;6153403;23;20044;-80
2022/09/17 03:32:33;;;;;;;0.55;0.30;;;20.00;99.90;;;;;;6153001;23;20012;-81
2022/09/17 03:34:59;;;;;;;2.10;0.30;;;20.00;99.90;;;;;;6155043;23;19998;-81
2022/09/17 03:37:24;;;;;;;0.50;0.40;;;20.10;99.90;;;;;;6155003;23;20034;-81
2022/09/17 03:39:50;;;;;;;0.93;0.43;;;20.00;99.90;;;;;;6154887;23;20363;-82
2022/09/17 03:42:16;;;;;;;1.52;0.63;;;20.00;99.90;;;;;;6154664;23;20428;-81
2022/09/17 03:44:41;;;;;;;1.75;0.93;;;19.90;99.90;;;;;;6179294;23;20076;-82
2022/09/17 03:47:07;;;;;;;0.98;0.60;;;19.80;99.90;;;;;;6179505;23;20002;-82
2022/09/17 03:49:33;;;;;;;1.67;0.60;;;19.70;99.90;;;;;;6156249;23;20029;-82
2022/09/17 03:51:58;;;;;;;0.47;0.45;;;19.50;99.90;;;;;;6156113;23;20059;-82
2022/09/17 03:54:24;;;;;;;0.55;0.55;;;19.20;99.90;;;;;;6154528;23;20345;-82
2022/09/17 03:56:50;;;;;;;0.40;0.40;;;19.10;99.90;;;;;;6156181;23;20009;-82
2022/09/17 03:59:16;;;;;;;0.50;0.50;;;18.90;99.90;;;;;;6156143;23;20052;-82
2022/09/17 04:01:41;;;;;;;0.70;0.45;;;18.80;99.90;;;;;;6155991;23;20315;-82
2022/09/17 04:04:08;;;;;;;0.85;0.50;;;18.70;99.90;;;;;;6156188;23;20005;-82
2022/09/17 04:06:34;;;;;;;0.20;0.20;;;18.60;99.90;;;;;;6154506;23;20437;-83
2022/09/17 04:08:59;;;;;;;0.30;0.30;;;18.40;99.90;;;;;;6156094;23;20009;-84
2022/09/17 04:11:26;;;;;;;0.40;0.20;;;18.30;99.90;;;;;;6179285;23;20006;-82
2022/09/17 04:13:51;;;;;;;0.25;0.17;;;18.20;99.90;;;;;;6155868;23;20005;-82
2022/09/17 04:16:17;;;;;;;0.50;0.50;;;18.20;99.90;;;;;;6155943;23;20024;-82
2022/09/17 04:18:43;;;;;;;0.10;0.10;;;18.30;99.90;;;;;;6179109;23;20002;-82
2022/09/17 04:21:08;;;;;;;0.20;0.20;;;18.30;99.90;;;;;;6155967;23;20025;-83
2022/09/17 04:23:34;;;;;;;0.38;0.10;;;18.40;99.90;;;;;;6154482;23;20013;-81
2022/09/17 04:26:00;;;;;;;0.40;0.40;;;18.50;99.90;;;;;;6155753;23;20007;-82
2022/09/17 04:28:26;;;;;;;0.05;0.05;;;18.40;99.90;;;;;;6156094;23;20009;-82
2022/09/17 04:30:51;;;;;;;0.20;0.20;;;18.30;99.90;;;;;;6156101;23;20029;-82
2022/09/17 04:33:17;;;;;;;0.10;0.10;;;18.20;99.90;;;;;;6154225;23;20029;-83
2022/09/17 04:35:44;;;;;;;0.10;0.10;;;18.10;99.90;;;;;;6155207;23;20461;-83
2022/09/17 04:38:09;;;;;;;0.17;0.17;;;17.90;99.90;;;;;;6153941;23;20461;-83
2022/09/17 04:40:35;;;;;;;0.20;0.20;;;17.90;99.90;;;;;;6154100;23;20002;-83
2022/09/17 04:43:02;;;;;;;0.15;0.15;;;17.80;99.90;;;;;;6154092;23;20422;-83
2022/09/17 04:45:32;;;;;;;0.82;0.20;;;17.70;99.90;;;;;;6154286;23;20342;-82
2022/09/17 04:47:57;;;;;;;1.92;0.60;;;17.80;99.90;;;;;;6155084;23;20005;-82
2022/09/17 04:50:23;;;;;;;1.75;0.38;;;17.90;99.90;;;;;;6154359;23;20505;-83
2022/09/17 04:52:49;;;;;;;0.35;0.30;;;17.70;99.90;;;;;;6154433;23;20005;-83
2022/09/17 04:55:15;;;;;;;4.68;0.73;;;17.60;99.90;;;;;;6154233;23;20012;-84
2022/09/17 04:57:49;;;;;;;0.85;0.40;;;17.40;99.90;;;;;;6152934;23;20001;-84
2022/09/17 05:00:16;;;;;;;0.20;0.20;;;17.20;99.90;;;;;;6153066;23;20333;-82
2022/09/17 05:02:44;;;;;;;0.40;0.40;;;16.90;99.90;;;;;;6152833;23;20319;-83
2022/09/17 05:05:10;;;;;;;0.45;0.22;;;16.90;99.90;;;;;;6177661;23;20422;-82
2022/09/17 05:07:40;;;;;;;0.20;0.20;;;16.70;99.90;;;;;;6152587;23;20010;-82
2022/09/17 05:10:06;;;;;;;0.80;0.30;;;16.60;99.90;;;;;;6152656;23;20335;-81
2022/09/17 05:12:32;;;;;;;2.08;0.22;;;16.60;99.90;;;;;;6153937;23;20009;-81
2022/09/17 05:14:58;;;;;;;1.65;0.20;;;16.50;99.90;;;;;;6154088;23;20006;-81
2022/09/17 05:17:23;;;;;;;0.30;0.20;;;16.40;99.90;;;;;;6154165;23;20002;-80
2022/09/17 05:19:49;;;;;;;0.20;0.20;;;16.20;99.90;;;;;;6154349;23;20311;-79
2022/09/17 05:22:16;;;;;;;0.20;0.20;;;16.20;99.90;;;;;;6152532;23;20009;-80
2022/09/17 05:24:41;;;;;;;0.20;0.20;;;16.20;99.90;;;;;;6154256;23;20080;-80
2022/09/17 05:27:07;;;;;;;0.20;0.20;;;16.30;99.90;;;;;;6154166;23;20033;-80
2022/09/17 05:29:33;;;;;;;0.20;0.20;;;16.20;99.90;;;;;;6153803;23;20002;-81
2022/09/17 05:31:59;;;;;;;0.20;0.20;;;16.00;99.90;;;;;;6152415;23;20093;-80
2022/09/17 05:34:25;;;;;;;0.30;0.30;;;15.90;99.90;;;;;;6152207;23;20093;-80
2022/09/17 05:36:50;;;;;;;0.35;0.25;;;15.80;99.90;;;;;;6152550;23;20006;-80
2022/09/17 05:39:16;;;;;;;0.65;0.20;;;15.70;99.90;;;;;;6153985;23;20009;-81
2022/09/17 05:41:42;;;;;;;0.10;0.10;;;15.60;99.90;;;;;;6152481;23;20519;-80
2022/09/17 05:44:07;;;;;;;0.20;0.20;;;15.60;99.90;;;;;;6152328;23;20006;-81
2022/09/17 05:46:33;;;;;;;0.98;0.30;;;15.40;99.90;;;;;;6152320;23;20005;-82
2022/09/17 05:48:59;;;;;;;0.20;0.20;;;15.30;99.90;;;;;;6152513;23;20029;-81
2022/09/17 05:51:24;;;;;;;1.00;0.40;;;15.20;99.90;;;;;;6152278;23;20012;-81
2022/09/17 05:53:52;;;;;;;1.27;0.45;;;15.20;99.90;;;;;;6153796;23;20005;-81
2022/09/17 05:56:18;;;;;;;1.38;0.45;;;15.10;99.90;;;;;;6152139;23;20017;-81
2022/09/17 05:58:44;;;;;;;0.63;0.20;;;15.00;99.90;;;;;;6152345;23;20099;-81
2022/09/17 06:01:14;;;;;;;1.75;0.40;;;15.00;99.90;;;;;;6152125;23;20012;-81
2022/09/17 06:03:41;;;;;;;0.20;0.20;;;15.00;99.90;;;;;;6153936;23;20012;-83
2022/09/17 06:06:06;;;;;;;0.25;0.25;;;14.80;99.90;;;;;;6152240;23;20371;-83
2022/09/17 06:08:35;;;;;;;0.30;0.30;;;14.70;99.90;;;;;;6177092;23;20012;-83
2022/09/17 06:11:08;;;;;;;3.58;0.28;;;14.60;99.90;;;;;;6152219;23;20029;-84
2022/09/17 06:13:34;;;;;;;0.30;0.28;;;14.70;99.90;;;;;;6152044;23;20009;-83
2022/09/17 06:16:01;;;;;;;0.65;0.65;;;14.60;99.90;;;;;;6152379;23;20005;-82
2022/09/17 06:18:28;;;;;;;0.52;0.20;;;14.50;99.90;;;;;;6152306;23;20006;-80
2022/09/17 06:21:02;;;;;;;1.05;0.30;;;14.50;99.90;;;;;;6176916;23;20079;-81
2022/09/17 06:23:34;;;;;;;1.65;0.20;;;14.40;99.90;;;;;;6152298;23;20006;-81
2022/09/17 06:26:01;;;;;;;0.40;0.40;;;14.20;99.90;;;;;;6153679;23;20012;-80
2022/09/17 06:28:28;;;;;;;1.08;0.32;;;14.30;99.90;;;;;;6153654;23;20382;-81
2022/09/17 06:30:55;;;;;;;0.17;0.10;;;14.30;99.90;;;;;;6151914;23;20337;-81
2022/09/17 06:33:22;;;;;;;1.33;0.20;;;14.20;99.90;;;;;;6152103;23;20087;-81
2022/09/17 06:35:54;;;;;;;0.68;0.30;;;14.30;99.90;;;;;;6176092;23;20036;-81
2022/09/17 06:38:20;;;;;;;0.20;0.20;;;14.30;99.90;;;;;;6152230;23;20375;-81
2022/09/17 06:40:52;;;;;;;0.38;0.32;;;14.30;99.90;;;;;;6152959;23;20029;-81
2022/09/17 06:43:18;;;;;;;0.30;0.30;;;14.20;99.90;;;;;;6153803;23;20097;-82
2022/09/17 06:45:50;;;;;;;0.20;0.20;;;14.30;99.90;;;;;;6155089;23;20426;-81
2022/09/17 06:48:15;;;;;;;0.10;0.10;;;14.20;99.90;;;;;;6155454;23;20069;-81
2022/09/17 06:50:41;;;;;;;0.20;0.20;;;14.20;99.90;;;;;;6153791;23;20422;-82
2022/09/17 06:53:08;;;;;;;0.43;0.30;;;14.20;99.90;;;;;;6153642;23;20386;-81
2022/09/17 06:55:34;;;;;;;0.20;0.20;;;14.40;99.90;;;;;;6153527;23;20432;-81
2022/09/17 06:58:00;;;;;;;0.20;0.20;;;14.40;99.90;;;;;;6153827;23;20137;-81
2022/09/17 07:00:26;;;;;;;0.95;0.30;;;14.40;99.90;;;;;;6153749;23;20006;-81
2022/09/17 07:02:58;;;;;;;0.30;0.30;;;14.30;99.90;;;;;;6153521;23;20012;-81
2022/09/17 07:05:26;;;;;;;0.20;0.20;;;14.20;99.90;;;;;;6153821;23;20013;-80
2022/09/17 07:07:52;;;;;;;0.40;0.40;;;14.20;99.90;;;;;;6153528;23;20037;-81
2022/09/17 07:10:19;;;;;;;0.50;0.40;;;14.20;99.90;;;;;;6154721;23;20058;-81
2022/09/17 07:12:44;;;;;;;0.20;0.20;;;14.20;99.90;;;;;;6153141;23;20092;-80
2022/09/17 07:15:10;;;;;;;0.20;0.20;;;14.20;99.90;;;;;;6153804;23;20423;-80
2022/09/17 07:17:40;;;;;;;0.20;0.20;;;14.30;99.90;;;;;;6155350;23;20073;-80
2022/09/17 07:20:07;;;;;;;0.68;0.28;;;14.30;99.90;;;;;;6153643;23;20006;-80
2022/09/17 07:22:33;;;;;;;0.20;0.20;;;14.40;99.90;;;;;;6153607;23;20002;-80
2022/09/17 07:24:59;;;;;;;0.55;0.30;;;14.40;99.90;;;;;;6155121;23;20006;-81
2022/09/17 07:27:28;;;;;;;3.63;0.88;;;14.30;99.90;;;;;;6178317;23;20006;-80
2022/09/17 07:29:54;;;;;;;0.30;0.30;;;14.30;99.90;;;;;;6153424;23;20009;-81
2022/09/17 07:32:20;;;;;;;0.65;0.20;;;14.30;99.90;;;;;;6154475;23;20001;-81
2022/09/17 07:34:47;;;;;;;0.30;0.30;;;14.30;99.90;;;;;;6154830;23;20012;-81
2022/09/17 07:37:13;;;;;;;0.63;0.63;;;14.20;99.90;;;;;;6153368;23;20012;-81
2022/09/17 07:39:38;;;;;;;0.77;0.40;;;14.10;99.90;;;;;;6177955;23;20005;-80
2022/09/17 07:42:04;;;;;;;0.30;0.30;;;14.10;99.90;;;;;;6153171;23;20008;-80
2022/09/17 07:44:30;;;;;;;0.20;0.20;;;14.10;99.90;;;;;;6153388;23;20009;-80
2022/09/17 07:46:56;;;;;;;0.20;0.20;;;14.20;99.90;;;;;;6153220;23;20005;-80
2022/09/17 07:49:21;;;;;;;0.20;0.20;;;14.30;99.90;;;;;;6154854;23;20006;-80
2022/09/17 07:51:47;;;;;;;0.30;0.30;;;14.30;99.90;;;;;;6152941;23;20002;-79
2022/09/17 07:54:13;;;;;;;0.30;0.30;;;14.30;99.90;;;;;;6151356;23;20005;-79
2022/09/17 07:56:38;;;;;;;0.20;0.20;;;14.40;99.90;;;;;;6151022;23;20453;-79
2022/09/17 07:59:04;;;;;;;0.20;0.20;;;14.30;99.90;;;;;;6152324;23;20315;-80
2022/09/17 08:01:35;;;;;;;0.25;0.25;;;14.30;99.90;;;;;;6151311;23;20033;-80
2022/09/17 08:04:01;;;;;;;0.30;0.30;;;14.40;99.90;;;;;;6151630;23;20012;-80
2022/09/17 08:06:28;;;;;;;0.73;0.20;;;14.30;99.90;;;;;;6152005;23;20005;-79
2022/09/17 08:09:01;;;;;;;0.20;0.20;;;14.30;99.90;;;;;;6152302;23;20469;-79
2022/09/17 08:11:28;;;;;;;0.38;0.20;;;14.50;99.90;;;;;;6152176;23;20080;-79
2022/09/17 08:13:54;;;;;;;0.75;0.35;;;14.80;99.90;;;;;;6150904;23;20009;-79
2022/09/17 08:16:21;;;;;;;1.38;0.30;;;15.00;99.90;;;;;;6153699;23;20302;-79
2022/09/17 08:18:48;;;;;;;0.35;0.35;;;15.30;99.90;;;;;;6151830;23;20088;-79
2022/09/17 08:21:17;;;;;;;0.20;0.20;;;15.50;99.90;;;;;;6152619;23;20077;-79
2022/09/17 08:23:44;;;;;;;0.20;0.20;;;15.50;99.90;;;;;;6152804;23;20005;-78
2022/09/17 08:26:15;;;;;;;0.43;0.30;;;15.70;99.90;;;;;;6152927;23;20041;-78
2022/09/17 08:28:46;;;;;;;0.20;0.20;;;15.80;99.90;;;;;;6152936;23;20186;-78
2022/09/17 08:31:13;;;;;;;0.20;0.20;;;15.80;99.90;;;;;;6151511;23;20426;-78
2022/09/17 08:33:40;;;;;;;0.20;0.20;;;15.80;99.90;;;;;;6152680;23;20014;-78
2022/09/17 08:36:09;;;;;;;0.75;0.40;;;15.80;99.90;;;;;;6153492;23;20001;-78
2022/09/17 08:38:39;;;;;;;0.20;0.20;;;15.90;99.90;;;;;;6150695;23;20457;-78
2022/09/17 08:41:23;;;;;;;2.08;0.25;;;16.10;99.90;;;;;;6152090;23;20005;-78
2022/09/17 08:44:04;;;;;;;0.20;0.20;;;16.20;99.90;;;;;;6152041;23;20013;-78
2022/09/17 08:46:41;;;;;;;0.65;0.30;;;16.20;99.90;;;;;;6152158;23;20009;-78
2022/09/17 08:49:14;;;;;;;0.28;0.28;;;16.00;99.90;;;;;;6151023;23;20012;-78
2022/09/17 08:52:08;;;;;;;0.10;0.10;;;16.00;99.90;;;;;;6151310;23;20041;-78
2022/09/17 08:55:15;;;;;;;0.25;0.25;;;16.10;99.90;;;;;;6153927;23;20468;-78
2022/09/17 08:58:18;;;;;;;1.48;0.17;;;16.30;99.90;;;;;;6152520;23;20481;-78
2022/09/17 09:00:54;;;;;;;0.38;0.30;;;16.30;99.90;;;;;;6154112;23;19998;-78
2022/09/17 09:03:52;;;;;;;0.95;0.30;;;16.30;99.90;;;;;;6152152;23;20063;-78
2022/09/17 09:06:25;;;;;;;0.30;0.30;;;16.30;99.90;;;;;;6154132;23;20006;-78
2022/09/17 09:08:58;;;;;;;1.55;0.30;;;16.40;99.90;;;;;;6152258;23;20006;-77
2022/09/17 09:11:26;;;;;;;0.28;0.28;;;16.30;99.90;;;;;;6154026;23;20012;-77
2022/09/17 09:14:19;;;;;;;0.63;0.30;;;16.10;99.90;;;;;;6152442;23;20146;-78
2022/09/17 09:16:47;;;;;;;0.50;0.40;;;16.20;99.90;;;;;;6147247;23;20002;-78
2022/09/17 09:19:41;;;;;;;0.57;0.22;;;16.20;99.90;;;;;;6151697;23;20001;-78
2022/09/17 09:22:25;;;;;;;0.30;0.30;;;16.20;99.90;;;;;;6153209;23;19994;-77
2022/09/17 09:25:16;;;;;;;0.22;0.20;;;16.40;99.90;;;;;;6153315;23;20379;-78
2022/09/17 09:28:02;;;;;;;0.40;0.40;;;16.70;99.90;;;;;;6153238;23;20002;-78
2022/09/17 09:31:00;;;;;;;0.30;0.30;;;16.70;99.90;;;;;;6120986;23;20009;-78
2022/09/17 09:33:30;;;;;;;0.40;0.40;;;16.80;99.90;;;;;;6150970;23;20009;-78
2022/09/17 09:35:56;;;;;;;0.20;0.20;;;16.80;99.90;;;;;;6153097;23;19998;-77
2022/09/17 09:38:22;;;;;;;0.70;0.20;;;16.80;99.90;;;;;;6153327;23;20442;-77
2022/09/17 09:40:57;;;;;;;0.10;0.10;;;16.80;99.90;;;;;;6153331;23;20005;-78
2022/09/17 09:44:01;;;;;;;0.25;0.25;;;16.80;99.90;;;;;;6176708;23;20338;-77
2022/09/17 09:46:48;;;;;;;0.75;0.20;;;16.80;99.90;;;;;;6148274;23;20014;-77
2022/09/17 09:49:19;;;;;;;0.20;0.20;;;16.80;99.90;;;;;;6153009;23;20001;-77
2022/09/17 09:52:12;;;;;;;0.32;0.32;;;16.80;99.90;;;;;;6153636;23;20009;-77
2022/09/17 09:54:56;;;;;;;0.30;0.30;;;16.90;99.90;;;;;;6153533;23;20040;-77
2022/09/17 09:57:32;;;;;;;0.28;0.28;;;16.80;99.90;;;;;;6153498;23;20017;-77
2022/09/17 10:00:27;;;;;;;0.30;0.30;;;17.00;99.90;;;;;;6153544;23;20012;-78
2022/09/17 10:03:17;;;;;;;0.20;0.20;;;17.00;99.90;;;;;;6153464;23;20001;-78
2022/09/17 10:06:09;;;;;;;0.30;0.30;;;17.20;99.90;;;;;;6151969;23;20013;-77
2022/09/17 10:08:39;;;;;;;;;;;17.20;99.90;;;;;;6167528;23;20153;-77
2022/09/17 10:11:08;;;;;;;0.73;0.32;;;17.10;99.90;;;;;;6153596;23;19904;-78
2022/09/17 10:13:35;;;;;;;1.23;0.40;;;17.00;99.90;;;;;;6151711;23;20350;-78
2022/09/17 10:16:17;;;;;;;0.20;0.20;;;17.00;99.90;;;;;;6153285;23;20009;-77
2022/09/17 10:18:44;;;;;;;6.03;0.63;;;17.10;99.90;;;;;;6153969;23;20349;-78
2022/09/17 10:21:32;;;;;;;0.20;0.20;;;17.10;99.90;;;;;;6155715;23;20025;-78
2022/09/17 10:23:59;;;;;;;0.30;0.30;;;17.30;99.90;;;;;;6153687;23;20032;-78
2022/09/17 10:26:34;;;;;;;0.20;0.20;;;17.20;99.90;;;;;;6155502;23;20438;-78
2022/09/17 10:29:03;;;;;;;0.17;0.15;;;17.30;99.90;;;;;;6153917;23;20434;-78
2022/09/17 10:31:52;;;;;;;0.82;0.30;;;17.30;99.90;;;;;;6155465;23;20001;-78
2022/09/17 10:34:24;;;;;;;0.30;0.30;;;17.20;99.90;;;;;;6153906;23;20426;-77
2022/09/17 10:36:50;;;;;;;;;;;17.40;99.90;;;;;;6155547;23;20257;-77
2022/09/17 10:39:41;;;;;;;0.30;0.30;;;17.60;99.90;;;;;;6155431;23;19939;-77
2022/09/17 10:42:10;;;;;;;0.40;0.40;;;17.60;99.90;;;;;;6155405;23;20005;-77
2022/09/17 10:44:37;;;;;;;0.40;0.40;;;17.50;99.90;;;;;;6155357;23;20132;-77
2022/09/17 10:47:17;;;;;;;0.20;0.20;;;17.50;99.90;;;;;;6155316;23;20012;-78
2022/09/17 10:49:52;;;;;;;0.20;0.20;;;17.70;99.90;;;;;;6155079;23;20001;-77
2022/09/17 10:52:42;;;;;;;0.50;0.20;;;17.70;99.90;;;;;;6155114;23;20009;-78
2022/09/17 10:55:24;;;;;;;0.30;0.30;;;17.90;99.90;;;;;;6155249;23;20013;-78
2022/09/17 10:58:06;;;;;;;0.20;0.20;;;17.90;99.90;;;;;;6155171;23;20002;-77
2022/09/17 11:00:54;;;;;;;0.30;0.30;;;17.90;99.90;;;;;;6153694;23;20006;-78
2022/09/17 11:03:23;;;;;;;1.35;0.30;;;18.00;99.90;;;;;;6155183;23;20031;-78
2022/09/17 11:06:14;;;;;;;0.30;0.30;;;18.00;99.90;;;;;;6155070;23;20434;-77
2022/09/17 11:08:45;;;;;;;0.20;0.20;;;18.00;99.90;;;;;;6154925;23;20500;-78
2022/09/17 11:11:28;;;;;;;0.35;0.32;;;18.00;99.90;;;;;;6153526;23;20001;-78
2022/09/17 11:14:03;;;;;;;;;;;17.90;99.90;;;;;;6155502;23;20001;-78
2022/09/17 11:17:03;;;;;;;0.40;0.40;;;18.10;99.90;;;;;;6154799;23;19900;-78
2022/09/17 11:19:32;;;;;;;0.55;0.55;;;18.20;99.90;;;;;;6078861;23;20326;-78
2022/09/17 11:22:25;;;;;;;0.30;0.30;;;18.10;99.90;;;;;;6154980;23;20061;-77
2022/09/17 11:24:50;;;;;;;;;;;18.30;99.90;;;;;;6155080;23;20012;-78
2022/09/17 11:27:26;;;;;;;1.58;0.38;;;18.20;99.90;;;;;;6154175;23;19901;-78
2022/09/17 11:30:18;;;;;;;0.30;0.30;;;18.10;99.90;;;;;;6154810;23;20414;-78
2022/09/17 11:33:13;;;;;;;0.40;0.40;;;18.20;99.90;;;;;;6153145;23;20005;-78
2022/09/17 11:35:49;;;;;;;0.43;0.43;;;18.20;99.90;;;;;;6154689;23;20461;-78
2022/09/17 11:38:23;;;;;;;0.22;0.20;;;18.30;99.90;;;;;;6178141;23;20001;-78
2022/09/17 11:41:11;;;;;;;1.02;0.50;;;18.60;99.90;;;;;;6154829;23;20001;-78
2022/09/17 11:43:41;;;;;;;1.48;0.47;;;18.50;99.90;;;;;;6177716;23;20055;-78
2022/09/17 11:46:09;;;;;;;0.73;0.40;;;18.60;99.90;;;;;;6154500;23;20001;-78
2022/09/17 11:48:45;;;;;;;0.57;0.57;;;18.30;99.90;;;;;;6154380;23;20002;-78
2022/09/17 11:51:37;;;;;;;0.55;0.40;;;18.40;99.90;;;;;;6154630;23;20028;-78
2022/09/17 11:54:14;;;;;;;1.20;0.30;;;18.30;99.90;;;;;;6152989;23;20064;-78
2022/09/17 11:56:48;;;;;;;0.98;0.60;;;18.20;99.90;;;;;;6154502;23;20068;-78
2022/09/17 11:59:41;;;;;;;0.63;0.50;;;18.30;99.90;;;;;;6154695;23;19998;-78
2022/09/17 12:02:20;;;;;;;1.23;0.30;;;18.30;99.90;;;;;;6154090;23;20434;-78
2022/09/17 12:05:02;;;;;;;0.60;0.60;;;18.40;99.90;;;;;;6154597;23;20006;-78
2022/09/17 12:07:39;;;;;;;1.75;0.47;;;18.40;99.90;;;;;;6153078;23;20333;-78
2022/09/17 12:10:14;;;;;;;0.80;0.50;;;18.60;99.90;;;;;;6152976;23;20005;-78
2022/09/17 12:12:48;;;;;;;2.67;0.40;;;18.70;99.90;;;;;;6152712;23;20009;-79
2022/09/17 12:15:27;;;;;;;0.55;0.55;;;18.90;99.90;;;;;;6177471;23;20009;-78
2022/09/17 12:17:58;;;;;;;0.80;0.50;;;19.00;99.90;;;;;;6177792;23;20002;-78
2022/09/17 12:20:32;;;;;;;0.55;0.55;;;19.20;99.90;;;;;;6177671;23;20084;-79
2022/09/17 12:23:01;;;;;;;0.50;0.50;;;19.20;99.90;;;;;;6154390;23;20008;-79
2022/09/17 12:25:41;;;;;;;0.50;0.38;;;19.20;99.90;;;;;;6152871;23;20005;-78
2022/09/17 12:28:17;;;;;;;0.75;0.60;;;19.20;99.90;;;;;;6152308;23;20012;-78
2022/09/17 12:30:53;;;;;;;0.45;0.45;;;19.30;99.90;;;;;;6152631;23;20068;-78
2022/09/17 12:33:31;;;;;;;0.60;0.60;;;19.40;99.90;;;;;;6154304;23;20396;-78
2022/09/17 12:36:05;;;;;;;0.50;0.50;;;19.50;99.90;;;;;;6154419;23;20009;-79
2022/09/17 12:38:52;;;;;;;1.00;0.40;;;19.40;99.90;;;;;;6151412;23;20009;-79
2022/09/17 12:41:46;;;;;;;0.88;0.80;;;19.20;99.90;;;;;;6152417;23;20033;-78
2022/09/17 12:44:49;;;;;;;0.68;0.65;;;18.90;99.90;;;;;;6152623;23;20005;-79
2022/09/17 12:47:43;;;;;;;0.80;0.70;;;19.00;99.90;;;;;;6152225;23;20041;-79
2022/09/17 12:50:14;;;;;;;0.60;0.60;;;19.20;99.90;;;;;;6150290;23;20005;-78
2022/09/17 12:52:52;;;;;;;0.98;0.60;;;19.20;99.90;;;;;;6150079;23;20398;-79
2022/09/17 12:55:30;;;;;;;0.47;0.40;;;19.10;99.90;;;;;;6150075;23;20393;-79
2022/09/17 12:58:17;;;;;;;1.00;0.65;;;19.00;99.90;;;;;;6150109;23;20056;-79
2022/09/17 13:00:51;;;;;;;0.50;0.50;;;19.20;99.90;;;;;;6152121;23;19997;-79
2022/09/17 13:03:29;;;;;;;0.60;0.60;;;19.60;99.90;;;;;;6152431;23;20027;-80
2022/09/17 13:06:25;;;;;;;0.68;0.40;;;19.80;99.90;;;;;;6154166;23;20055;-79
2022/09/17 13:09:34;;;;;;;1.00;0.50;;;19.90;99.90;;;;;;6154075;23;20009;-79
2022/09/17 13:12:21;;;;;;;1.67;0.60;;;19.60;99.90;;;;;;6124913;23;20009;-79
2022/09/17 13:15:18;;;;;;;0.90;0.60;;;19.40;99.90;;;;;;6152127;23;20442;-82
2022/09/17 13:18:02;;;;;;;0.50;0.50;;;19.40;99.90;;;;;;6152132;23;20060;-81
2022/09/17 13:20:43;;;;;;;0.47;0.47;;;19.50;99.90;;;;;;6152481;23;20311;-81